Terminal Aerodrome Forecast
Issued by NWS

Home | Current Version | Previous Version | Text Only | Print | Product List | Glossary On
Versions: 1 2 3 4 5 6 7 8 9 10 11 12 13 14
000
FTUS45 KTFX 292331
TAFLWT
TAF
KLWT 292331Z 3000/3024 10008KT P6SM SCT250
     FM300600 13008KT P6SM VCTS SCT080CB BKN140 BKN200
     FM301000 11008KT P6SM SCT100 BKN200=

USA.gov is the U.S. government's official web portal to all federal, state and local government web resources and services.